sensor_id;sensor_type;location;lat;lon;timestamp;P1;durP1;ratioP1;P2;durP2;ratioP2
46128;SDS011;31860;45.186;5.790;2023-02-13T00:01:15;11.93;;;2.22;;
46128;SDS011;31860;45.186;5.790;2023-02-13T00:03:41;2.35;;;1.65;;
46128;SDS011;31860;45.186;5.790;2023-02-13T00:06:06;2.25;;;1.52;;
46128;SDS011;31860;45.186;5.790;2023-02-13T00:08:32;3.67;;;1.92;;
46128;SDS011;31860;45.186;5.790;2023-02-13T00:10:57;3.15;;;1.15;;
46128;SDS011;31860;45.186;5.790;2023-02-13T00:13:23;4.68;;;1.90;;
46128;SDS011;31860;45.186;5.790;2023-02-13T00:15:55;4.78;;;2.03;;
46128;SDS011;31860;45.186;5.790;2023-02-13T00:18:22;6.13;;;2.42;;
46128;SDS011;31860;45.186;5.790;2023-02-13T00:21:01;3.72;;;2.10;;
46128;SDS011;31860;45.186;5.790;2023-02-13T00:23:32;4.13;;;2.17;;
46128;SDS011;31860;45.186;5.790;2023-02-13T00:25:59;5.72;;;2.85;;
46128;SDS011;31860;45.186;5.790;2023-02-13T00:28:25;8.13;;;4.45;;
46128;SDS011;31860;45.186;5.790;2023-02-13T00:30:51;5.90;;;3.95;;
46128;SDS011;31860;45.186;5.790;2023-02-13T00:33:17;5.88;;;3.20;;
46128;SDS011;31860;45.186;5.790;2023-02-13T00:35:42;4.30;;;2.85;;
46128;SDS011;31860;45.186;5.790;2023-02-13T00:38:07;6.30;;;2.35;;
46128;SDS011;31860;45.186;5.790;2023-02-13T00:40:33;6.38;;;2.58;;
46128;SDS011;31860;45.186;5.790;2023-02-13T00:42:58;4.15;;;2.80;;
46128;SDS011;31860;45.186;5.790;2023-02-13T00:45:24;7.28;;;3.72;;
46128;SDS011;31860;45.186;5.790;2023-02-13T00:47:49;8.95;;;3.35;;
46128;SDS011;31860;45.186;5.790;2023-02-13T00:50:14;5.60;;;2.90;;
46128;SDS011;31860;45.186;5.790;2023-02-13T00:52:40;7.90;;;3.85;;
46128;SDS011;31860;45.186;5.790;2023-02-13T00:55:05;5.22;;;2.58;;
46128;SDS011;31860;45.186;5.790;2023-02-13T00:57:31;10.48;;;3.17;;
46128;SDS011;31860;45.186;5.790;2023-02-13T00:59:57;4.65;;;3.10;;
46128;SDS011;31860;45.186;5.790;2023-02-13T01:02:23;3.95;;;2.90;;
46128;SDS011;31860;45.186;5.790;2023-02-13T01:04:48;2.85;;;2.45;;
46128;SDS011;31860;45.186;5.790;2023-02-13T01:07:14;6.97;;;3.20;;
46128;SDS011;31860;45.186;5.790;2023-02-13T01:09:39;6.13;;;3.70;;
46128;SDS011;31860;45.186;5.790;2023-02-13T01:12:04;12.30;;;3.55;;
46128;SDS011;31860;45.186;5.790;2023-02-13T01:14:30;9.98;;;3.88;;
46128;SDS011;31860;45.186;5.790;2023-02-13T01:16:55;4.35;;;3.03;;
46128;SDS011;31860;45.186;5.790;2023-02-13T01:19:21;4.22;;;2.78;;
46128;SDS011;31860;45.186;5.790;2023-02-13T01:21:46;7.20;;;2.85;;
46128;SDS011;31860;45.186;5.790;2023-02-13T01:24:11;7.47;;;4.00;;
46128;SDS011;31860;45.186;5.790;2023-02-13T01:26:37;11.68;;;3.90;;
46128;SDS011;31860;45.186;5.790;2023-02-13T01:29:02;6.10;;;2.83;;
46128;SDS011;31860;45.186;5.790;2023-02-13T01:31:28;8.50;;;3.45;;
46128;SDS011;31860;45.186;5.790;2023-02-13T01:33:56;6.75;;;3.08;;
46128;SDS011;31860;45.186;5.790;2023-02-13T01:36:22;8.38;;;3.20;;
46128;SDS011;31860;45.186;5.790;2023-02-13T01:38:51;5.43;;;2.65;;
46128;SDS011;31860;45.186;5.790;2023-02-13T01:41:18;3.30;;;2.53;;
46128;SDS011;31860;45.186;5.790;2023-02-13T01:43:54;11.77;;;3.53;;
46128;SDS011;31860;45.186;5.790;2023-02-13T01:49:18;4.10;;;2.78;;
46128;SDS011;31860;45.186;5.790;2023-02-13T01:51:47;2.25;;;1.73;;
46128;SDS011;31860;45.186;5.790;2023-02-13T01:54:18;2.60;;;1.85;;
46128;SDS011;31860;45.186;5.790;2023-02-13T01:56:49;3.40;;;2.05;;
46128;SDS011;31860;45.186;5.790;2023-02-13T01:59:19;2.40;;;2.13;;
46128;SDS011;31860;45.186;5.790;2023-02-13T02:01:47;6.40;;;2.08;;
46128;SDS011;31860;45.186;5.790;2023-02-13T02:04:14;6.20;;;1.90;;
46128;SDS011;31860;45.186;5.790;2023-02-13T02:06:48;2.72;;;1.70;;
46128;SDS011;31860;45.186;5.790;2023-02-13T02:09:26;2.45;;;1.50;;
46128;SDS011;31860;45.186;5.790;2023-02-13T02:12:02;4.32;;;2.88;;
46128;SDS011;31860;45.186;5.790;2023-02-13T02:14:34;2.15;;;1.70;;
46128;SDS011;31860;45.186;5.790;2023-02-13T02:17:00;3.75;;;2.13;;
46128;SDS011;31860;45.186;5.790;2023-02-13T02:19:43;8.57;;;2.05;;
46128;SDS011;31860;45.186;5.790;2023-02-13T02:25:17;3.22;;;2.00;;
46128;SDS011;31860;45.186;5.790;2023-02-13T02:31:20;4.13;;;2.75;;
46128;SDS011;31860;45.186;5.790;2023-02-13T02:34:23;8.15;;;2.85;;
46128;SDS011;31860;45.186;5.790;2023-02-13T02:50:34;6.10;;;2.35;;
46128;SDS011;31860;45.186;5.790;2023-02-13T02:58:35;8.52;;;3.38;;
46128;SDS011;31860;45.186;5.790;2023-02-13T03:01:25;4.20;;;2.70;;
46128;SDS011;31860;45.186;5.790;2023-02-13T03:04:13;8.88;;;3.83;;
46128;SDS011;31860;45.186;5.790;2023-02-13T03:07:03;7.43;;;3.30;;
46128;SDS011;31860;45.186;5.790;2023-02-13T03:09:34;4.13;;;2.53;;
46128;SDS011;31860;45.186;5.790;2023-02-13T03:12:22;5.35;;;2.92;;
46128;SDS011;31860;45.186;5.790;2023-02-13T03:15:24;9.02;;;3.38;;
46128;SDS011;31860;45.186;5.790;2023-02-13T03:17:51;11.05;;;3.47;;
46128;SDS011;31860;45.186;5.790;2023-02-13T03:20:47;4.07;;;2.95;;
46128;SDS011;31860;45.186;5.790;2023-02-13T03:24:13;8.57;;;3.22;;
46128;SDS011;31860;45.186;5.790;2023-02-13T03:27:08;4.45;;;2.55;;
46128;SDS011;31860;45.186;5.790;2023-02-13T03:29:53;6.88;;;2.88;;
46128;SDS011;31860;45.186;5.790;2023-02-13T03:38:02;15.75;;;2.45;;
46128;SDS011;31860;45.186;5.790;2023-02-13T03:40:36;4.18;;;2.22;;
46128;SDS011;31860;45.186;5.790;2023-02-13T03:43:31;4.15;;;2.35;;
46128;SDS011;31860;45.186;5.790;2023-02-13T03:46:06;4.72;;;2.67;;
46128;SDS011;31860;45.186;5.790;2023-02-13T03:48:34;7.78;;;2.65;;
46128;SDS011;31860;45.186;5.790;2023-02-13T03:51:23;4.63;;;2.10;;
46128;SDS011;31860;45.186;5.790;2023-02-13T03:54:21;7.90;;;3.20;;
46128;SDS011;31860;45.186;5.790;2023-02-13T03:57:08;2.53;;;1.90;;
46128;SDS011;31860;45.186;5.790;2023-02-13T03:59:54;2.65;;;2.33;;
46128;SDS011;31860;45.186;5.790;2023-02-13T04:02:23;4.32;;;2.80;;
46128;SDS011;31860;45.186;5.790;2023-02-13T04:04:53;2.28;;;1.80;;
46128;SDS011;31860;45.186;5.790;2023-02-13T04:07:27;3.05;;;1.90;;
46128;SDS011;31860;45.186;5.790;2023-02-13T04:09:54;4.78;;;2.80;;
46128;SDS011;31860;45.186;5.790;2023-02-13T04:15:07;5.40;;;3.20;;
46128;SDS011;31860;45.186;5.790;2023-02-13T04:17:40;3.45;;;2.35;;
46128;SDS011;31860;45.186;5.790;2023-02-13T04:20:10;2.38;;;1.92;;
46128;SDS011;31860;45.186;5.790;2023-02-13T04:22:46;4.22;;;2.65;;
46128;SDS011;31860;45.186;5.790;2023-02-13T04:25:13;6.78;;;2.28;;
46128;SDS011;31860;45.186;5.790;2023-02-13T04:27:40;2.25;;;2.00;;
46128;SDS011;31860;45.186;5.790;2023-02-13T04:30:06;5.00;;;2.15;;
46128;SDS011;31860;45.186;5.790;2023-02-13T04:32:33;3.65;;;2.40;;
46128;SDS011;31860;45.186;5.790;2023-02-13T04:34:58;3.17;;;1.63;;
46128;SDS011;31860;45.186;5.790;2023-02-13T04:37:23;4.35;;;2.20;;
46128;SDS011;31860;45.186;5.790;2023-02-13T04:39:49;2.08;;;1.85;;
46128;SDS011;31860;45.186;5.790;2023-02-13T04:42:14;5.60;;;2.35;;
46128;SDS011;31860;45.186;5.790;2023-02-13T04:44:39;3.83;;;2.25;;
46128;SDS011;31860;45.186;5.790;2023-02-13T04:47:05;3.60;;;2.45;;
46128;SDS011;31860;45.186;5.790;2023-02-13T04:49:30;9.00;;;2.67;;
46128;SDS011;31860;45.186;5.790;2023-02-13T04:51:55;4.97;;;3.03;;
46128;SDS011;31860;45.186;5.790;2023-02-13T04:54:21;3.90;;;2.33;;
46128;SDS011;31860;45.186;5.790;2023-02-13T04:56:46;4.07;;;2.03;;
46128;SDS011;31860;45.186;5.790;2023-02-13T04:59:12;4.43;;;2.35;;
46128;SDS011;31860;45.186;5.790;2023-02-13T05:01:37;4.57;;;2.65;;
46128;SDS011;31860;45.186;5.790;2023-02-13T05:04:02;3.35;;;2.03;;
46128;SDS011;31860;45.186;5.790;2023-02-13T05:06:28;5.55;;;2.55;;
46128;SDS011;31860;45.186;5.790;2023-02-13T05:08:53;7.20;;;2.83;;
46128;SDS011;31860;45.186;5.790;2023-02-13T05:11:18;4.65;;;2.38;;
46128;SDS011;31860;45.186;5.790;2023-02-13T05:13:44;7.47;;;3.47;;
46128;SDS011;31860;45.186;5.790;2023-02-13T05:16:09;8.75;;;2.53;;
46128;SDS011;31860;45.186;5.790;2023-02-13T05:18:34;2.58;;;2.10;;
46128;SDS011;31860;45.186;5.790;2023-02-13T05:21:00;7.60;;;3.45;;
46128;SDS011;31860;45.186;5.790;2023-02-13T05:23:44;4.20;;;2.60;;
46128;SDS011;31860;45.186;5.790;2023-02-13T05:26:09;3.42;;;2.22;;
46128;SDS011;31860;45.186;5.790;2023-02-13T05:28:34;7.53;;;2.10;;
46128;SDS011;31860;45.186;5.790;2023-02-13T05:31:18;4.18;;;2.45;;
46128;SDS011;31860;45.186;5.790;2023-02-13T05:33:44;3.92;;;2.88;;
46128;SDS011;31860;45.186;5.790;2023-02-13T05:36:09;1.92;;;1.55;;
46128;SDS011;31860;45.186;5.790;2023-02-13T05:38:35;6.80;;;2.88;;
46128;SDS011;31860;45.186;5.790;2023-02-13T05:41:00;5.82;;;2.72;;
46128;SDS011;31860;45.186;5.790;2023-02-13T05:43:26;4.78;;;1.95;;
46128;SDS011;31860;45.186;5.790;2023-02-13T05:46:05;6.38;;;2.55;;
46128;SDS011;31860;45.186;5.790;2023-02-13T05:48:32;3.92;;;2.88;;
46128;SDS011;31860;45.186;5.790;2023-02-13T05:50:57;9.95;;;2.35;;
46128;SDS011;31860;45.186;5.790;2023-02-13T05:53:23;2.35;;;1.58;;
46128;SDS011;31860;45.186;5.790;2023-02-13T05:55:48;5.13;;;3.13;;
46128;SDS011;31860;45.186;5.790;2023-02-13T05:58:16;9.52;;;4.97;;
46128;SDS011;31860;45.186;5.790;2023-02-13T06:00:43;4.32;;;3.65;;
46128;SDS011;31860;45.186;5.790;2023-02-13T06:03:08;8.23;;;4.15;;
46128;SDS011;31860;45.186;5.790;2023-02-13T06:05:33;6.28;;;2.92;;
46128;SDS011;31860;45.186;5.790;2023-02-13T06:07:59;8.05;;;3.40;;
46128;SDS011;31860;45.186;5.790;2023-02-13T06:10:24;7.13;;;3.13;;
46128;SDS011;31860;45.186;5.790;2023-02-13T06:12:50;3.65;;;2.53;;
46128;SDS011;31860;45.186;5.790;2023-02-13T06:15:15;5.03;;;1.88;;
46128;SDS011;31860;45.186;5.790;2023-02-13T06:17:40;2.50;;;2.28;;
46128;SDS011;31860;45.186;5.790;2023-02-13T06:20:06;8.07;;;2.42;;
46128;SDS011;31860;45.186;5.790;2023-02-13T06:22:32;4.05;;;2.50;;
46128;SDS011;31860;45.186;5.790;2023-02-13T06:24:57;4.65;;;2.92;;
46128;SDS011;31860;45.186;5.790;2023-02-13T06:27:22;5.15;;;2.28;;
46128;SDS011;31860;45.186;5.790;2023-02-13T06:29:48;3.90;;;2.35;;
46128;SDS011;31860;45.186;5.790;2023-02-13T06:32:13;3.63;;;2.75;;
46128;SDS011;31860;45.186;5.790;2023-02-13T06:34:38;2.55;;;1.95;;
46128;SDS011;31860;45.186;5.790;2023-02-13T06:37:04;3.35;;;2.22;;
46128;SDS011;31860;45.186;5.790;2023-02-13T06:39:29;6.97;;;2.53;;
46128;SDS011;31860;45.186;5.790;2023-02-13T06:41:54;4.07;;;2.00;;
46128;SDS011;31860;45.186;5.790;2023-02-13T06:44:20;5.20;;;2.40;;
46128;SDS011;31860;45.186;5.790;2023-02-13T06:46:45;2.90;;;2.28;;
46128;SDS011;31860;45.186;5.790;2023-02-13T06:49:10;3.83;;;1.88;;
46128;SDS011;31860;45.186;5.790;2023-02-13T06:51:36;3.97;;;2.17;;
46128;SDS011;31860;45.186;5.790;2023-02-13T06:54:01;2.83;;;2.05;;
46128;SDS011;31860;45.186;5.790;2023-02-13T06:56:26;4.10;;;2.17;;
46128;SDS011;31860;45.186;5.790;2023-02-13T06:58:52;5.80;;;3.75;;
46128;SDS011;31860;45.186;5.790;2023-02-13T07:01:17;1.98;;;1.58;;
46128;SDS011;31860;45.186;5.790;2023-02-13T07:03:42;3.58;;;2.58;;
46128;SDS011;31860;45.186;5.790;2023-02-13T07:06:08;3.33;;;1.95;;
46128;SDS011;31860;45.186;5.790;2023-02-13T07:08:33;5.90;;;2.10;;
46128;SDS011;31860;45.186;5.790;2023-02-13T07:10:59;3.75;;;2.33;;
46128;SDS011;31860;45.186;5.790;2023-02-13T07:13:24;5.28;;;2.58;;
46128;SDS011;31860;45.186;5.790;2023-02-13T07:15:49;6.93;;;2.83;;
46128;SDS011;31860;45.186;5.790;2023-02-13T07:18:15;6.75;;;2.55;;
46128;SDS011;31860;45.186;5.790;2023-02-13T07:20:40;7.28;;;2.92;;
46128;SDS011;31860;45.186;5.790;2023-02-13T07:23:06;7.70;;;3.72;;
46128;SDS011;31860;45.186;5.790;2023-02-13T07:25:31;4.20;;;2.42;;
46128;SDS011;31860;45.186;5.790;2023-02-13T07:28:04;5.70;;;2.50;;
46128;SDS011;31860;45.186;5.790;2023-02-13T07:30:31;3.08;;;2.47;;
46128;SDS011;31860;45.186;5.790;2023-02-13T07:33:00;3.95;;;2.10;;
46128;SDS011;31860;45.186;5.790;2023-02-13T07:35:27;5.95;;;2.10;;
46128;SDS011;31860;45.186;5.790;2023-02-13T07:37:53;4.47;;;1.88;;
46128;SDS011;31860;45.186;5.790;2023-02-13T07:40:19;5.07;;;2.47;;
46128;SDS011;31860;45.186;5.790;2023-02-13T07:42:44;3.92;;;1.88;;
46128;SDS011;31860;45.186;5.790;2023-02-13T07:45:10;5.40;;;2.85;;
46128;SDS011;31860;45.186;5.790;2023-02-13T07:47:35;4.95;;;3.30;;
46128;SDS011;31860;45.186;5.790;2023-02-13T07:50:01;4.22;;;2.28;;
46128;SDS011;31860;45.186;5.790;2023-02-13T07:52:30;11.90;;;3.83;;
46128;SDS011;31860;45.186;5.790;2023-02-13T07:54:56;5.55;;;3.03;;
46128;SDS011;31860;45.186;5.790;2023-02-13T07:57:21;8.52;;;4.50;;
46128;SDS011;31860;45.186;5.790;2023-02-13T07:59:47;9.48;;;4.45;;
46128;SDS011;31860;45.186;5.790;2023-02-13T08:02:12;5.55;;;3.50;;
46128;SDS011;31860;45.186;5.790;2023-02-13T08:04:39;7.05;;;3.25;;
46128;SDS011;31860;45.186;5.790;2023-02-13T08:07:05;4.32;;;2.67;;
46128;SDS011;31860;45.186;5.790;2023-02-13T08:09:30;6.53;;;3.28;;
46128;SDS011;31860;45.186;5.790;2023-02-13T08:12:14;2.75;;;2.45;;
46128;SDS011;31860;45.186;5.790;2023-02-13T08:14:40;9.90;;;2.92;;
46128;SDS011;31860;45.186;5.790;2023-02-13T08:17:05;3.42;;;3.03;;
46128;SDS011;31860;45.186;5.790;2023-02-13T08:19:31;3.15;;;2.33;;
46128;SDS011;31860;45.186;5.790;2023-02-13T08:21:56;7.65;;;3.05;;
46128;SDS011;31860;45.186;5.790;2023-02-13T08:24:22;5.97;;;3.08;;
46128;SDS011;31860;45.186;5.790;2023-02-13T08:26:47;7.53;;;2.88;;
46128;SDS011;31860;45.186;5.790;2023-02-13T08:29:13;9.80;;;3.50;;
46128;SDS011;31860;45.186;5.790;2023-02-13T08:31:38;3.15;;;2.25;;
46128;SDS011;31860;45.186;5.790;2023-02-13T08:34:04;6.18;;;2.60;;
46128;SDS011;31860;45.186;5.790;2023-02-13T08:36:29;5.60;;;2.88;;
46128;SDS011;31860;45.186;5.790;2023-02-13T08:38:55;3.90;;;2.95;;
46128;SDS011;31860;45.186;5.790;2023-02-13T08:41:21;6.55;;;2.75;;
46128;SDS011;31860;45.186;5.790;2023-02-13T08:43:50;3.40;;;2.13;;
46128;SDS011;31860;45.186;5.790;2023-02-13T08:46:16;2.85;;;2.45;;
46128;SDS011;31860;45.186;5.790;2023-02-13T08:48:42;8.18;;;2.28;;
46128;SDS011;31860;45.186;5.790;2023-02-13T08:51:08;2.63;;;2.25;;
46128;SDS011;31860;45.186;5.790;2023-02-13T08:53:36;9.70;;;2.95;;
46128;SDS011;31860;45.186;5.790;2023-02-13T08:56:02;4.80;;;2.70;;
46128;SDS011;31860;45.186;5.790;2023-02-13T08:58:28;4.40;;;3.10;;
46128;SDS011;31860;45.186;5.790;2023-02-13T09:00:54;11.45;;;2.58;;
46128;SDS011;31860;45.186;5.790;2023-02-13T09:03:19;4.05;;;2.78;;
46128;SDS011;31860;45.186;5.790;2023-02-13T09:05:45;5.70;;;2.50;;
46128;SDS011;31860;45.186;5.790;2023-02-13T09:08:11;2.65;;;2.45;;
46128;SDS011;31860;45.186;5.790;2023-02-13T09:10:38;7.95;;;3.03;;
46128;SDS011;31860;45.186;5.790;2023-02-13T09:13:04;6.22;;;2.38;;
46128;SDS011;31860;45.186;5.790;2023-02-13T09:15:30;5.07;;;3.00;;
46128;SDS011;31860;45.186;5.790;2023-02-13T09:17:56;8.75;;;2.88;;
46128;SDS011;31860;45.186;5.790;2023-02-13T09:20:21;4.85;;;2.67;;
46128;SDS011;31860;45.186;5.790;2023-02-13T09:22:47;2.95;;;2.55;;
46128;SDS011;31860;45.186;5.790;2023-02-13T09:25:13;4.13;;;2.67;;
46128;SDS011;31860;45.186;5.790;2023-02-13T09:27:38;5.72;;;2.40;;
46128;SDS011;31860;45.186;5.790;2023-02-13T09:30:04;7.95;;;2.85;;
46128;SDS011;31860;45.186;5.790;2023-02-13T09:32:31;2.83;;;1.95;;
46128;SDS011;31860;45.186;5.790;2023-02-13T09:34:58;3.85;;;2.67;;
46128;SDS011;31860;45.186;5.790;2023-02-13T09:37:24;2.88;;;1.90;;
46128;SDS011;31860;45.186;5.790;2023-02-13T09:39:50;2.92;;;1.65;;
46128;SDS011;31860;45.186;5.790;2023-02-13T09:42:26;4.50;;;1.92;;
46128;SDS011;31860;45.186;5.790;2023-02-13T09:44:57;5.88;;;1.90;;
46128;SDS011;31860;45.186;5.790;2023-02-13T09:47:30;2.30;;;1.73;;
46128;SDS011;31860;45.186;5.790;2023-02-13T09:52:38;4.00;;;1.80;;
46128;SDS011;31860;45.186;5.790;2023-02-13T09:55:13;3.50;;;1.73;;
46128;SDS011;31860;45.186;5.790;2023-02-13T09:58:04;2.75;;;1.45;;
46128;SDS011;31860;45.186;5.790;2023-02-13T10:00:41;2.65;;;1.70;;
46128;SDS011;31860;45.186;5.790;2023-02-13T10:03:23;2.08;;;1.13;;
46128;SDS011;31860;45.186;5.790;2023-02-13T10:08:36;5.25;;;1.90;;
46128;SDS011;31860;45.186;5.790;2023-02-13T10:11:59;0.60;;;0.60;;
46128;SDS011;31860;45.186;5.790;2023-02-13T10:14:31;0.80;;;0.77;;
46128;SDS011;31860;45.186;5.790;2023-02-13T10:20:06;1.37;;;1.20;;
46128;SDS011;31860;45.186;5.790;2023-02-13T10:22:48;1.25;;;0.95;;
46128;SDS011;31860;45.186;5.790;2023-02-13T10:25:26;0.75;;;0.75;;
46128;SDS011;31860;45.186;5.790;2023-02-13T10:30:29;1.85;;;1.42;;
46128;SDS011;31860;45.186;5.790;2023-02-13T10:35:44;1.40;;;1.13;;
46128;SDS011;31860;45.186;5.790;2023-02-13T10:38:20;2.63;;;1.25;;
46128;SDS011;31860;45.186;5.790;2023-02-13T10:58:14;1.25;;;0.80;;
46128;SDS011;31860;45.186;5.790;2023-02-13T11:03:38;1.17;;;0.93;;
46128;SDS011;31860;45.186;5.790;2023-02-13T11:06:05;0.70;;;0.70;;
46128;SDS011;31860;45.186;5.790;2023-02-13T11:08:40;0.40;;;0.40;;
46128;SDS011;31860;45.186;5.790;2023-02-13T11:14:08;0.80;;;0.80;;
46128;SDS011;31860;45.186;5.790;2023-02-13T11:16:43;1.17;;;0.93;;
46128;SDS011;31860;45.186;5.790;2023-02-13T11:19:15;0.90;;;0.80;;
46128;SDS011;31860;45.186;5.790;2023-02-13T11:24:20;1.75;;;1.10;;
46128;SDS011;31860;45.186;5.790;2023-02-13T11:27:07;1.15;;;1.02;;
46128;SDS011;31860;45.186;5.790;2023-02-13T11:29:49;2.70;;;1.00;;
46128;SDS011;31860;45.186;5.790;2023-02-13T11:32:19;0.63;;;0.55;;
46128;SDS011;31860;45.186;5.790;2023-02-13T11:34:47;1.23;;;0.85;;
46128;SDS011;31860;45.186;5.790;2023-02-13T11:39:50;2.60;;;0.60;;
46128;SDS011;31860;45.186;5.790;2023-02-13T11:42:30;0.70;;;0.70;;
46128;SDS011;31860;45.186;5.790;2023-02-13T11:45:03;0.85;;;0.60;;
46128;SDS011;31860;45.186;5.790;2023-02-13T11:50:26;0.68;;;0.68;;
46128;SDS011;31860;45.186;5.790;2023-02-13T12:00:48;0.98;;;0.95;;
46128;SDS011;31860;45.186;5.790;2023-02-13T12:05:58;1.13;;;1.00;;
46128;SDS011;31860;45.186;5.790;2023-02-13T12:08:27;0.45;;;0.40;;
46128;SDS011;31860;45.186;5.790;2023-02-13T12:10:53;1.10;;;0.70;;
46128;SDS011;31860;45.186;5.790;2023-02-13T12:13:23;4.25;;;0.82;;
46128;SDS011;31860;45.186;5.790;2023-02-13T12:16:05;0.57;;;0.57;;
46128;SDS011;31860;45.186;5.790;2023-02-13T12:18:43;1.30;;;0.75;;
46128;SDS011;31860;45.186;5.790;2023-02-13T12:24:30;2.63;;;0.73;;
46128;SDS011;31860;45.186;5.790;2023-02-13T12:33:35;0.50;;;0.50;;
46128;SDS011;31860;45.186;5.790;2023-02-13T12:47:18;0.43;;;0.43;;
46128;SDS011;31860;45.186;5.790;2023-02-13T13:03:19;1.55;;;0.57;;
46128;SDS011;31860;45.186;5.790;2023-02-13T13:14:08;0.40;;;0.40;;
46128;SDS011;31860;45.186;5.790;2023-02-13T13:16:53;0.60;;;0.60;;
46128;SDS011;31860;45.186;5.790;2023-02-13T13:19:34;0.93;;;0.40;;
46128;SDS011;31860;45.186;5.790;2023-02-13T13:27:57;0.77;;;0.77;;
46128;SDS011;31860;45.186;5.790;2023-02-13T13:30:33;0.30;;;0.30;;
46128;SDS011;31860;45.186;5.790;2023-02-13T13:33:01;1.48;;;0.70;;
46128;SDS011;31860;45.186;5.790;2023-02-13T13:35:38;1.00;;;0.70;;
46128;SDS011;31860;45.186;5.790;2023-02-13T13:38:12;0.57;;;0.57;;
46128;SDS011;31860;45.186;5.790;2023-02-13T13:52:28;0.50;;;0.50;;
46128;SDS011;31860;45.186;5.790;2023-02-13T13:54:58;0.40;;;0.40;;
46128;SDS011;31860;45.186;5.790;2023-02-13T13:57:27;0.75;;;0.70;;
46128;SDS011;31860;45.186;5.790;2023-02-13T14:00:25;0.73;;;0.57;;
